createdAt,value
2018-07-01T00:00:13.278Z,53.78
2018-07-01T00:01:13.294Z,53.39
2018-07-01T00:03:06.288Z,53.94
2018-07-01T00:04:06.351Z,53.94
2018-07-01T00:05:59.351Z,53.46
2018-07-01T00:06:59.409Z,54.04
2018-07-01T00:08:52.424Z,54.23
2018-07-01T00:09:52.469Z,54.04
2018-07-01T00:11:45.460Z,54.23
2018-07-01T00:12:45.526Z,54.71
2018-07-01T00:14:39.028Z,55.10
2018-07-01T00:15:39.080Z,55.10
2018-07-01T00:17:32.078Z,55.67
2018-07-01T00:18:32.143Z,55.47
2018-07-01T00:20:25.143Z,54.90
2018-07-01T00:21:25.201Z,55.67
2018-07-01T00:23:18.190Z,55.47
2018-07-01T00:24:18.249Z,55.47
2018-07-01T00:26:11.254Z,55.35
2018-07-01T00:27:11.310Z,55.55
2018-07-01T00:29:04.302Z,56.02
2018-07-01T00:30:04.365Z,56.51
2018-07-01T00:31:57.366Z,56.02
2018-07-01T00:32:57.423Z,56.79
2018-07-01T00:34:50.416Z,55.83
2018-07-01T00:35:50.480Z,56.51
2018-07-01T00:37:43.479Z,56.31
2018-07-01T00:38:43.536Z,56.89
2018-07-01T00:40:36.536Z,57.08
2018-07-01T00:41:36.594Z,57.28
2018-07-01T00:43:29.586Z,57.85
2018-07-01T00:44:29.651Z,57.95
2018-07-01T00:46:22.655Z,57.75
2018-07-01T00:47:22.713Z,57.65
2018-07-01T00:49:15.705Z,58.81
2018-07-01T00:50:15.769Z,57.56
2018-07-01T00:52:08.768Z,57.65
2018-07-01T00:53:08.828Z,58.04
2018-07-01T00:55:01.816Z,58.33
2018-07-01T00:56:01.881Z,57.75
2018-07-01T00:57:54.878Z,58.04
2018-07-01T00:58:54.936Z,58.23
2018-07-01T01:00:47.973Z,58.33
2018-07-01T01:01:47.992Z,58.23
2018-07-01T01:03:40.986Z,59.19
2018-07-01T01:04:41.047Z,59.38
2018-07-01T01:06:34.051Z,59.58
2018-07-01T01:07:34.105Z,59.16
2018-07-01T01:09:27.105Z,59.00
2018-07-01T01:10:27.163Z,58.71
2018-07-01T01:12:20.163Z,58.23
2018-07-01T01:13:20.222Z,59.09
2018-07-01T01:15:13.723Z,58.71
2018-07-01T01:16:13.785Z,58.04
2018-07-01T01:18:06.785Z,58.04
2018-07-01T01:19:06.841Z,58.33
2018-07-01T01:20:59.835Z,58.97
2018-07-01T01:21:59.898Z,58.30
2018-07-01T01:23:52.899Z,57.56
2018-07-01T01:24:52.956Z,58.23
2018-07-01T01:26:45.953Z,58.23
2018-07-01T01:28:58.964Z,58.23
2018-07-01T01:29:59.029Z,58.04
2018-07-01T01:31:52.036Z,59.36
2018-07-01T01:32:52.082Z,59.26
2018-07-01T01:34:45.075Z,59.26
2018-07-01T01:35:45.139Z,59.16
2018-07-01T01:37:38.137Z,59.55
2018-07-01T01:38:38.197Z,60.03
2018-07-01T01:40:31.189Z,59.83
2018-07-01T01:41:31.249Z,60.12
2018-07-01T01:43:24.245Z,60.41
2018-07-01T01:44:24.301Z,61.56
2018-07-01T01:46:17.296Z,61.37
2018-07-01T01:47:17.356Z,61.08
2018-07-01T01:49:10.353Z,61.63
2018-07-01T01:50:10.410Z,61.37
2018-07-01T01:52:03.398Z,61.85
2018-07-01T01:53:03.463Z,61.82
2018-07-01T01:54:56.463Z,62.30
2018-07-01T01:55:56.517Z,62.20
2018-07-01T01:57:49.524Z,62.96
2018-07-01T01:58:49.571Z,63.26
2018-07-01T02:00:42.560Z,64.12
2018-07-01T02:01:42.626Z,64.40
2018-07-01T02:03:35.623Z,64.69
2018-07-01T02:04:35.680Z,64.22
2018-07-01T02:06:28.726Z,65.94
2018-07-01T02:07:28.735Z,65.94
2018-07-01T02:09:21.732Z,65.36
2018-07-01T02:10:21.789Z,65.14
2018-07-01T02:12:14.787Z,64.79
2018-07-01T02:13:14.849Z,64.98
2018-07-01T02:15:08.354Z,65.17
2018-07-01T02:16:08.411Z,65.23
2018-07-01T02:18:01.402Z,65.42
2018-07-01T02:19:01.468Z,65.46
2018-07-01T02:20:54.468Z,65.36
2018-07-01T02:21:54.522Z,64.66
2018-07-01T02:23:47.517Z,64.95
2018-07-01T02:24:47.576Z,66.00
2018-07-01T02:26:40.561Z,66.09
2018-07-01T02:27:40.624Z,66.09
2018-07-01T02:29:33.630Z,67.05
2018-07-01T02:30:33.691Z,66.38
2018-07-01T02:32:26.678Z,66.19
2018-07-01T02:33:26.742Z,66.29
2018-07-01T02:35:19.742Z,65.71
2018-07-01T02:36:19.795Z,66.19
2018-07-01T02:38:12.787Z,66.19
2018-07-01T02:39:12.852Z,66.77
2018-07-01T02:41:05.858Z,66.58
2018-07-01T02:42:05.914Z,67.05
2018-07-01T02:43:58.912Z,67.05
2018-07-01T02:44:58.970Z,66.86
2018-07-01T02:46:51.968Z,67.25
2018-07-01T02:47:52.029Z,67.34
2018-07-01T02:49:45.027Z,67.34
2018-07-01T02:50:45.084Z,67.34
2018-07-01T02:52:38.084Z,67.63
2018-07-01T02:53:38.243Z,67.54
2018-07-01T02:55:31.141Z,67.54
2018-07-01T02:56:31.196Z,67.72
2018-07-01T02:58:24.187Z,68.27
2018-07-01T02:59:24.250Z,68.59
2018-07-01T03:01:17.249Z,67.82
2018-07-01T03:02:17.309Z,67.82
2018-07-01T03:04:10.306Z,68.11
2018-07-01T03:05:10.364Z,68.59
2018-07-01T03:07:03.350Z,69.32
2018-07-01T03:08:03.414Z,69.13
2018-07-01T03:09:56.412Z,69.80
2018-07-01T03:10:56.484Z,69.51
2018-07-01T03:12:49.457Z,69.23
2018-07-01T03:13:49.522Z,69.13
2018-07-01T03:15:42.518Z,69.51
2018-07-01T03:16:42.572Z,69.32
2018-07-01T03:18:35.560Z,69.70
2018-07-01T03:19:35.626Z,69.70
2018-07-01T03:21:28.624Z,69.70
2018-07-01T03:22:28.682Z,70.56
2018-07-01T03:24:21.679Z,70.37
2018-07-01T03:25:21.734Z,70.28
2018-07-01T03:27:14.721Z,71.14
2018-07-01T03:28:14.786Z,70.95
2018-07-01T03:30:07.785Z,71.52
2018-07-01T03:31:07.843Z,71.52
2018-07-01T03:33:00.832Z,70.95
2018-07-01T03:34:00.892Z,70.95
2018-07-01T03:35:53.894Z,71.71
2018-07-01T03:36:53.952Z,71.62
2018-07-01T03:38:46.936Z,71.42
2018-07-01T03:39:46.998Z,71.14
2018-07-01T03:41:39.993Z,72.38
2018-07-01T03:42:40.049Z,72.29
2018-07-01T03:44:33.048Z,72.48
2018-07-01T03:45:33.101Z,71.91
2018-07-01T03:47:26.098Z,72.00
2018-07-01T03:48:26.156Z,72.00
2018-07-01T03:50:19.247Z,72.19
2018-07-01T03:51:19.206Z,71.91
2018-07-01T03:53:12.196Z,71.71
2018-07-01T03:54:12.260Z,71.91
2018-07-01T03:56:05.256Z,72.19
2018-07-01T03:57:05.316Z,72.09
2018-07-01T03:58:58.300Z,72.48
2018-07-01T03:59:58.361Z,72.86
2018-07-01T04:01:51.360Z,72.19
2018-07-01T04:02:51.416Z,72.86
2018-07-01T04:04:44.430Z,72.86
2018-07-01T04:05:44.467Z,73.34
2018-07-01T04:07:37.468Z,73.15
2018-07-01T04:08:37.526Z,73.15
2018-07-01T04:10:30.529Z,74.01
2018-07-01T04:11:30.589Z,73.63
2018-07-01T04:13:23.582Z,73.54
2018-07-01T04:14:23.644Z,74.01
2018-07-01T04:16:16.645Z,74.20
2018-07-01T04:17:16.701Z,74.11
2018-07-01T04:19:09.698Z,72.86
2018-07-01T04:20:09.754Z,73.54
2018-07-01T04:22:02.758Z,73.54
2018-07-01T04:23:02.817Z,74.01
2018-07-01T04:24:55.809Z,73.24
2018-07-01T04:25:55.872Z,73.54
2018-07-01T04:27:48.873Z,73.34
2018-07-01T04:28:48.931Z,73.82
2018-07-01T04:30:41.919Z,72.77
2018-07-01T04:31:41.983Z,72.80
2018-07-01T04:33:34.985Z,72.90
2018-07-01T04:34:35.047Z,72.99
2018-07-01T04:36:28.051Z,72.90
2018-07-01T04:37:28.095Z,72.80
2018-07-01T04:39:21.086Z,72.80
2018-07-01T04:40:21.152Z,73.09
2018-07-01T04:42:14.145Z,72.42
2018-07-01T04:43:14.198Z,72.03
2018-07-01T04:45:07.191Z,72.23
2018-07-01T04:46:07.253Z,72.03
2018-07-01T04:48:00.252Z,72.90
2018-07-01T04:49:00.308Z,72.42
2018-07-01T04:50:53.298Z,72.13
2018-07-01T04:51:53.363Z,72.03
2018-07-01T04:53:46.362Z,71.75
2018-07-01T04:54:46.413Z,69.83
2018-07-01T04:56:39.416Z,70.98
2018-07-01T04:57:39.466Z,71.27
2018-07-01T04:59:32.455Z,70.79
2018-07-01T05:00:32.516Z,71.31
2018-07-01T05:02:25.575Z,70.06
2018-07-01T05:03:25.573Z,71.31
2018-07-01T05:05:18.562Z,69.58
2018-07-01T05:06:18.623Z,70.25
2018-07-01T05:08:11.621Z,71.21
2018-07-01T05:09:11.674Z,69.87
2018-07-01T05:11:04.664Z,69.48
2018-07-01T05:12:04.726Z,69.87
2018-07-01T05:13:57.724Z,69.33
2018-07-01T05:14:57.782Z,69.01
2018-07-01T05:16:50.776Z,67.50
2018-07-01T05:17:50.828Z,67.99
2018-07-01T05:19:43.821Z,67.12
2018-07-01T05:20:43.887Z,67.12
2018-07-01T05:22:36.898Z,67.02
2018-07-01T05:23:36.938Z,67.41
2018-07-01T05:25:29.927Z,66.93
2018-07-01T05:26:29.994Z,65.97
2018-07-01T05:28:22.989Z,66.74
2018-07-01T05:29:23.041Z,65.39
2018-07-01T05:31:16.039Z,65.33
2018-07-01T05:32:16.094Z,66.10
2018-07-01T05:34:09.094Z,63.79
2018-07-01T05:35:09.146Z,63.51
2018-07-01T05:37:02.144Z,64.28
2018-07-01T05:38:02.199Z,63.89
2018-07-01T05:39:55.189Z,63.22
2018-07-01T05:40:55.253Z,62.74
2018-07-01T05:42:48.258Z,62.84
2018-07-01T05:43:48.312Z,65.56
2018-07-01T05:45:41.305Z,63.16
2018-07-01T05:46:41.383Z,62.01
2018-07-01T05:48:34.371Z,63.16
2018-07-01T05:49:34.429Z,63.25
2018-07-01T05:51:27.425Z,62.96
2018-07-01T05:52:27.489Z,62.13
2018-07-01T05:54:20.490Z,60.78
2018-07-01T05:55:20.548Z,60.40
2018-07-01T05:57:13.600Z,59.73
2018-07-01T05:58:13.601Z,60.02
2018-07-01T06:00:06.604Z,59.34
2018-07-01T06:01:06.660Z,60.91
2018-07-01T06:02:59.657Z,59.66
2018-07-01T06:03:59.713Z,59.86
2018-07-01T06:05:52.711Z,59.57
2018-07-01T06:06:52.768Z,58.51
2018-07-01T06:08:45.780Z,57.87
2018-07-01T06:09:45.832Z,56.71
2018-07-01T06:11:38.828Z,56.26
2018-07-01T06:12:38.890Z,54.85
2018-07-01T06:14:32.397Z,53.59
2018-07-01T06:15:32.453Z,53.05
2018-07-01T06:17:25.450Z,51.26
2018-07-01T06:18:25.517Z,49.63
2018-07-01T06:20:18.516Z,46.97
2018-07-01T06:21:18.572Z,45.40
2018-07-01T06:23:11.575Z,41.35
2018-07-01T06:24:11.632Z,39.72
2018-07-01T06:26:04.630Z,38.58
2018-07-01T06:27:04.690Z,37.61
2018-07-01T06:28:57.690Z,37.26
2018-07-01T06:29:57.751Z,36.22
2018-07-01T06:31:50.746Z,35.29
2018-07-01T06:32:50.837Z,34.38
2018-07-01T06:34:43.820Z,34.50
2018-07-01T06:35:43.883Z,34.32
2018-07-01T06:37:36.888Z,33.58
2018-07-01T06:38:36.958Z,33.48
2018-07-01T06:40:29.968Z,32.76
2018-07-01T06:41:30.032Z,32.97
2018-07-01T06:43:23.054Z,32.50
2018-07-01T06:44:23.114Z,32.11
2018-07-01T06:46:16.636Z,31.41
2018-07-01T06:47:16.703Z,32.18
2018-07-01T06:49:09.718Z,31.92
2018-07-01T06:50:09.785Z,31.51
2018-07-01T06:52:02.800Z,29.97
2018-07-01T06:53:02.871Z,30.19
2018-07-01T06:54:55.889Z,28.93
2018-07-01T06:55:55.956Z,28.34
2018-07-01T06:57:48.974Z,28.90
2018-07-01T06:58:49.064Z,29.32
2018-07-01T07:00:42.071Z,27.28
2018-07-01T07:01:42.139Z,27.87
2018-07-01T07:03:35.164Z,27.28
2018-07-01T07:04:35.228Z,28.32
2018-07-01T07:06:28.292Z,28.53
2018-07-01T07:07:28.340Z,28.53
2018-07-01T07:09:21.341Z,26.66
2018-07-01T07:10:21.407Z,25.60
2018-07-01T07:12:14.424Z,25.92
2018-07-01T07:13:14.500Z,24.63
2018-07-01T07:15:07.528Z,25.04
2018-07-01T07:16:07.610Z,26.19
2018-07-01T07:18:00.609Z,26.81
2018-07-01T07:19:00.688Z,25.65
2018-07-01T07:20:53.708Z,25.14
2018-07-01T07:21:53.778Z,25.32
2018-07-01T07:23:46.802Z,25.64
2018-07-01T07:24:46.878Z,24.61
2018-07-01T07:26:39.900Z,24.49
2018-07-01T07:27:39.974Z,24.77
2018-07-01T07:29:32.994Z,24.37
2018-07-01T07:30:33.064Z,24.38
2018-07-01T07:32:26.080Z,24.00
2018-07-01T07:33:26.158Z,23.68
2018-07-01T07:35:19.184Z,25.13
2018-07-01T07:36:19.253Z,24.63
2018-07-01T07:38:12.273Z,24.06
2018-07-01T07:39:12.349Z,24.27
2018-07-01T07:41:05.374Z,23.97
2018-07-01T07:42:05.446Z,24.10
2018-07-01T07:43:58.464Z,24.82
2018-07-01T07:44:58.572Z,24.73
2018-07-01T07:46:52.074Z,24.07
2018-07-01T07:47:52.142Z,24.24
2018-07-01T07:49:45.169Z,24.08
2018-07-01T07:50:45.239Z,23.86
2018-07-01T07:52:38.264Z,24.10
2018-07-01T07:53:38.334Z,23.10
2018-07-01T07:55:31.361Z,23.71
2018-07-01T07:56:31.469Z,22.83
2018-07-01T07:58:24.451Z,22.90
2018-07-01T07:59:24.541Z,22.72
2018-07-01T08:01:17.575Z,23.01
2018-07-01T08:02:17.648Z,23.39
2018-07-01T08:04:10.668Z,22.91
2018-07-01T08:05:10.751Z,23.88
2018-07-01T08:07:03.787Z,22.85
2018-07-01T08:08:03.924Z,22.74
2018-07-01T08:09:56.879Z,22.05
2018-07-01T08:10:56.957Z,22.53
2018-07-01T08:12:50.046Z,22.07
2018-07-01T08:13:50.063Z,21.88
2018-07-01T08:15:43.129Z,21.36
2018-07-01T08:16:43.167Z,22.88
2018-07-01T08:18:36.191Z,24.85
2018-07-01T08:19:36.264Z,24.06
2018-07-01T08:21:29.300Z,24.05
2018-07-01T08:22:29.388Z,23.88
2018-07-01T08:24:22.395Z,23.66
2018-07-01T08:25:22.475Z,24.82
2018-07-01T08:27:15.510Z,24.15
2018-07-01T08:28:15.573Z,24.73
2018-07-01T08:30:08.595Z,24.74
2018-07-01T08:31:08.675Z,24.48
2018-07-01T08:33:01.712Z,23.14
2018-07-01T08:34:01.784Z,22.94
2018-07-01T08:35:54.809Z,22.97
2018-07-01T08:36:54.880Z,22.08
2018-07-01T08:38:47.906Z,23.88
2018-07-01T08:39:47.982Z,23.02
2018-07-01T08:41:41.008Z,24.37
2018-07-01T08:42:41.096Z,24.63
2018-07-01T08:44:34.101Z,24.73
2018-07-01T08:45:34.183Z,24.76
2018-07-01T08:47:27.207Z,24.49
2018-07-01T08:48:27.278Z,24.30
2018-07-01T08:50:20.808Z,23.35
2018-07-01T08:51:20.888Z,22.85
2018-07-01T08:53:13.914Z,23.51
2018-07-01T08:54:13.989Z,22.83
2018-07-01T08:56:07.013Z,23.69
2018-07-01T08:57:07.093Z,23.43
2018-07-01T08:59:00.124Z,23.03
2018-07-01T09:00:00.196Z,23.21
2018-07-01T09:01:53.234Z,22.97
2018-07-01T09:02:53.301Z,24.56
2018-07-01T09:04:46.320Z,23.68
2018-07-01T09:05:46.400Z,24.06
2018-07-01T09:07:39.430Z,24.28
2018-07-01T09:08:39.526Z,23.99
2018-07-01T09:10:32.527Z,24.63
2018-07-01T09:11:32.598Z,25.35
2018-07-01T09:13:25.633Z,23.73
2018-07-01T09:14:25.705Z,24.11
2018-07-01T09:16:18.726Z,23.03
2018-07-01T09:17:18.869Z,23.30
2018-07-01T09:19:11.837Z,24.27
2018-07-01T09:20:11.911Z,24.78
2018-07-01T09:22:04.935Z,24.10
2018-07-01T09:23:05.020Z,24.07
2018-07-01T09:24:58.061Z,23.13
2018-07-01T09:25:58.123Z,23.12
2018-07-01T09:27:51.151Z,22.17
2018-07-01T09:28:51.229Z,21.96
2018-07-01T09:30:44.251Z,23.58
2018-07-01T09:31:44.329Z,23.30
2018-07-01T09:33:37.363Z,24.34
2018-07-01T09:34:37.455Z,23.84
2018-07-01T09:36:30.456Z,25.58
2018-07-01T09:37:30.532Z,25.46
2018-07-01T09:39:23.567Z,27.54
2018-07-01T09:40:23.638Z,28.89
2018-07-01T09:42:16.658Z,30.04
2018-07-01T09:43:16.741Z,29.36
2018-07-01T09:45:09.761Z,31.59
2018-07-01T09:46:09.822Z,30.23
2018-07-01T09:48:02.847Z,29.66
2018-07-01T09:49:02.915Z,29.85
2018-07-01T09:50:55.965Z,29.74
2018-07-01T09:51:56.009Z,29.92
2018-07-01T09:53:49.019Z,31.10
2018-07-01T09:54:49.223Z,30.81
2018-07-01T09:56:42.602Z,30.91
2018-07-01T09:57:42.670Z,30.04
2018-07-01T09:59:35.689Z,30.71
2018-07-01T10:00:35.773Z,30.23
2018-07-01T10:02:28.768Z,30.04
2018-07-01T10:03:28.834Z,29.83
2018-07-01T10:05:21.863Z,31.29
2018-07-01T10:06:21.928Z,31.87
2018-07-01T10:08:14.940Z,29.84
2018-07-01T10:09:15.008Z,29.84
2018-07-01T10:11:08.030Z,29.34
2018-07-01T10:12:08.100Z,29.63
2018-07-01T10:14:01.113Z,31.01
2018-07-01T10:15:01.176Z,31.59
2018-07-01T10:16:54.182Z,30.04
2018-07-01T10:17:54.254Z,31.20
2018-07-01T10:19:47.267Z,31.89
2018-07-01T10:20:47.329Z,31.01
2018-07-01T10:22:40.341Z,31.28
2018-07-01T10:23:40.411Z,31.37
2018-07-01T10:25:33.421Z,31.28
2018-07-01T10:26:33.526Z,31.18
2018-07-01T10:28:26.491Z,31.56
2018-07-01T10:29:26.555Z,31.37
2018-07-01T10:31:19.572Z,31.09
2018-07-01T10:32:19.632Z,32.54
2018-07-01T10:34:12.639Z,30.29
2018-07-01T10:35:12.701Z,30.88
2018-07-01T10:37:05.705Z,32.34
2018-07-01T10:38:05.780Z,31.37
2018-07-01T10:39:58.796Z,30.58
2018-07-01T10:40:58.853Z,31.94
2018-07-01T10:42:51.854Z,30.98
2018-07-01T10:43:51.924Z,31.47
2018-07-01T10:45:44.986Z,31.47
2018-07-01T10:46:44.994Z,31.37
2018-07-01T10:48:37.995Z,31.76
2018-07-01T10:49:38.064Z,31.47
2018-07-01T10:51:31.077Z,30.60
2018-07-01T10:52:31.135Z,30.79
2018-07-01T10:54:24.149Z,30.98
2018-07-01T10:55:24.222Z,30.98
2018-07-01T10:57:17.234Z,31.47
2018-07-01T10:58:17.298Z,31.18
2018-07-01T11:00:10.308Z,31.47
2018-07-01T11:01:10.367Z,30.88
2018-07-01T11:03:03.370Z,31.57
2018-07-01T11:04:03.438Z,31.67
2018-07-01T11:05:56.487Z,31.67
2018-07-01T11:06:56.509Z,31.67
2018-07-01T11:08:49.510Z,31.01
2018-07-01T11:09:49.577Z,31.29
2018-07-01T11:11:42.633Z,30.71
2018-07-01T11:12:42.645Z,30.32
2018-07-01T11:14:35.651Z,30.32
2018-07-01T11:15:35.718Z,30.04
2018-07-01T11:17:28.722Z,30.32
2018-07-01T11:18:28.788Z,30.89
2018-07-01T11:20:21.823Z,31.10
2018-07-01T11:21:21.861Z,30.13
2018-07-01T11:23:14.859Z,31.87
2018-07-01T11:24:14.926Z,31.01
2018-07-01T11:26:07.937Z,30.71
2018-07-01T11:27:08.304Z,31.99
2018-07-01T11:29:01.002Z,31.78
2018-07-01T11:30:01.065Z,30.13
2018-07-01T11:31:54.079Z,30.23
2018-07-01T11:32:54.142Z,30.91
2018-07-01T11:34:47.152Z,31.79
2018-07-01T11:35:47.223Z,30.34
2018-07-01T11:37:40.227Z,29.84
2018-07-01T11:38:40.291Z,30.62
2018-07-01T11:40:33.294Z,31.68
2018-07-01T11:41:33.363Z,31.59
2018-07-01T11:43:26.371Z,31.20
2018-07-01T11:44:26.433Z,31.01
2018-07-01T11:46:19.451Z,30.81
2018-07-01T11:47:19.529Z,30.99
2018-07-01T11:49:12.530Z,31.57
2018-07-01T11:50:12.595Z,31.78
2018-07-01T11:52:05.613Z,32.46
2018-07-01T11:53:05.694Z,31.97
2018-07-01T11:54:58.683Z,32.26
2018-07-01T11:55:58.760Z,30.81
2018-07-01T11:57:51.768Z,30.21
2018-07-01T11:58:51.832Z,30.99
2018-07-01T12:00:44.825Z,30.02
2018-07-01T12:01:44.915Z,30.79
2018-07-01T12:03:37.900Z,30.99
2018-07-01T12:04:37.964Z,31.28
2018-07-01T12:06:30.969Z,32.36
2018-07-01T12:07:31.035Z,32.26
2018-07-01T12:09:24.047Z,31.47
2018-07-01T12:10:24.111Z,31.49
2018-07-01T12:12:17.124Z,31.01
2018-07-01T12:13:17.178Z,30.21
2018-07-01T12:15:10.195Z,32.24
2018-07-01T12:16:10.249Z,30.99
2018-07-01T12:18:03.260Z,32.36
2018-07-01T12:19:03.317Z,32.17
2018-07-01T12:20:56.317Z,32.07
2018-07-01T12:21:56.384Z,32.56
2018-07-01T12:23:49.394Z,31.37
2018-07-01T12:24:49.454Z,32.34
2018-07-01T12:26:42.455Z,32.34
2018-07-01T12:27:42.524Z,31.39
2018-07-01T12:29:35.529Z,31.01
2018-07-01T12:30:35.591Z,31.78
2018-07-01T12:32:28.599Z,31.99
2018-07-01T12:33:28.661Z,31.79
2018-07-01T12:35:21.666Z,31.41
2018-07-01T12:36:21.729Z,33.44
2018-07-01T12:38:14.738Z,30.73
2018-07-01T12:39:14.799Z,30.73
2018-07-01T12:41:07.805Z,31.31
2018-07-01T12:42:07.971Z,31.60
2018-07-01T12:44:00.878Z,29.84
2018-07-01T12:45:00.940Z,31.09
2018-07-01T12:46:53.940Z,31.86
2018-07-01T12:47:54.009Z,32.06
2018-07-01T12:49:47.017Z,32.36
2018-07-01T12:50:47.078Z,32.17
2018-07-01T12:52:40.077Z,33.34
2018-07-01T12:53:40.148Z,31.41
2018-07-01T12:55:33.158Z,31.41
2018-07-01T12:56:33.229Z,31.70
2018-07-01T12:58:26.223Z,30.63
2018-07-01T12:59:26.286Z,31.31
2018-07-01T13:01:19.286Z,29.37
2018-07-01T13:02:19.361Z,28.11
2018-07-01T13:04:12.371Z,30.05
2018-07-01T13:05:12.434Z,30.05
2018-07-01T13:07:05.433Z,30.34
2018-07-01T13:08:05.501Z,30.92
2018-07-01T13:09:58.505Z,32.47
2018-07-01T13:10:58.570Z,31.31
2018-07-01T13:12:51.567Z,31.87
2018-07-01T13:13:51.639Z,31.78
2018-07-01T13:15:44.643Z,32.84
2018-07-01T13:16:44.705Z,32.75
2018-07-01T13:18:37.717Z,33.14
2018-07-01T13:19:37.821Z,32.84
2018-07-01T13:21:30.776Z,32.18
2018-07-01T13:22:30.845Z,31.10
2018-07-01T13:24:23.851Z,31.02
2018-07-01T13:25:23.916Z,31.50
2018-07-01T13:27:16.916Z,29.95
2018-07-01T13:28:16.986Z,30.34
2018-07-01T13:30:09.988Z,32.17
2018-07-01T13:31:10.052Z,31.97
2018-07-01T13:33:03.052Z,32.56
2018-07-01T13:34:03.120Z,32.84
2018-07-01T13:35:56.147Z,32.56
2018-07-01T13:36:56.192Z,33.04
2018-07-01T13:38:49.190Z,32.84
2018-07-01T13:39:49.266Z,32.86
2018-07-01T13:41:42.268Z,32.57
2018-07-01T13:42:42.364Z,33.06
2018-07-01T13:44:35.334Z,31.41
2018-07-01T13:45:35.398Z,32.28
2018-07-01T13:47:28.394Z,32.18
2018-07-01T13:48:28.463Z,31.32
2018-07-01T13:50:21.476Z,30.24
2018-07-01T13:51:21.536Z,30.92
2018-07-01T13:53:14.543Z,31.02
2018-07-01T13:54:14.614Z,31.60
2018-07-01T13:56:07.656Z,30.91
2018-07-01T13:57:07.705Z,32.07
2018-07-01T13:59:01.192Z,31.18
2018-07-01T14:00:01.258Z,32.56
2018-07-01T14:01:54.277Z,32.56
2018-07-01T14:02:54.326Z,31.29
2018-07-01T14:04:58.973Z,31.12
2018-07-01T14:05:59.035Z,32.18
2018-07-01T14:07:52.036Z,31.50
2018-07-01T14:08:52.101Z,32.47
2018-07-01T14:10:45.113Z,31.87
2018-07-01T14:11:45.173Z,32.28
2018-07-01T14:13:38.174Z,32.18
2018-07-01T14:14:38.241Z,31.60
2018-07-01T14:16:31.250Z,31.60
2018-07-01T14:17:31.371Z,31.89
2018-07-01T14:19:24.313Z,32.28
2018-07-01T14:20:24.380Z,31.89
2018-07-01T14:22:17.392Z,32.28
2018-07-01T14:23:17.453Z,32.47
2018-07-01T14:25:10.468Z,32.28
2018-07-01T14:26:10.531Z,32.76
2018-07-01T14:28:03.531Z,31.41
2018-07-01T14:29:03.600Z,31.99
2018-07-01T14:30:56.606Z,32.67
2018-07-01T14:31:56.666Z,32.57
2018-07-01T14:33:49.674Z,31.99
2018-07-01T14:34:49.738Z,31.99
2018-07-01T14:36:42.746Z,31.70
2018-07-01T14:37:42.807Z,32.28
2018-07-01T14:39:35.811Z,32.37
2018-07-01T14:40:35.876Z,32.37
2018-07-01T14:42:28.884Z,32.57
2018-07-01T14:43:28.949Z,33.06
2018-07-01T14:45:21.944Z,32.57
2018-07-01T14:46:22.014Z,33.34
2018-07-01T14:48:15.034Z,33.34
2018-07-01T14:49:15.156Z,33.25
2018-07-01T14:51:08.095Z,32.47
2018-07-01T14:52:08.156Z,32.86
2018-07-01T14:54:01.668Z,32.96
2018-07-01T14:55:01.734Z,32.29
2018-07-01T14:56:54.742Z,31.89
2018-07-01T14:57:54.800Z,31.99
2018-07-01T14:59:47.811Z,32.57
2018-07-01T15:00:47.870Z,32.76
2018-07-01T15:02:40.877Z,33.64
2018-07-01T15:03:40.937Z,33.34
2018-07-01T15:05:33.936Z,33.25
2018-07-01T15:06:34.009Z,33.34
2018-07-01T15:08:27.014Z,33.83
2018-07-01T15:09:27.075Z,33.34
2018-07-01T15:11:20.082Z,32.76
2018-07-01T15:12:20.143Z,33.15
2018-07-01T15:14:13.156Z,33.25
2018-07-01T15:15:13.220Z,33.44
2018-07-01T15:17:06.227Z,33.83
2018-07-01T15:18:06.288Z,33.34
2018-07-01T15:19:59.289Z,32.47
2018-07-01T15:20:59.355Z,32.47
2018-07-01T15:22:52.365Z,33.34
2018-07-01T15:23:52.431Z,33.54
2018-07-01T15:25:45.424Z,33.73
2018-07-01T15:26:45.496Z,33.73
2018-07-01T15:28:38.503Z,33.73
2018-07-01T15:29:38.564Z,34.02
2018-07-01T15:31:31.572Z,34.41
2018-07-01T15:32:31.633Z,33.34
2018-07-01T15:34:24.639Z,33.15
2018-07-01T15:35:24.701Z,33.73
2018-07-01T15:37:17.707Z,33.64
2018-07-01T15:38:17.777Z,33.44
2018-07-01T15:40:10.798Z,33.54
2018-07-01T15:41:10.845Z,33.64
2018-07-01T15:43:03.853Z,33.25
2018-07-01T15:44:03.914Z,33.34
2018-07-01T15:45:56.915Z,33.26
2018-07-01T15:46:56.985Z,33.17
2018-07-01T15:48:49.989Z,33.46
2018-07-01T15:49:50.052Z,33.38
2018-07-01T15:51:43.563Z,33.09
2018-07-01T15:52:43.629Z,32.79
2018-07-01T15:54:36.635Z,32.41
2018-07-01T15:55:36.698Z,32.50
2018-07-01T15:57:29.699Z,32.60
2018-07-01T15:58:29.767Z,32.12
2018-07-01T16:00:22.774Z,32.78
2018-07-01T16:01:22.835Z,32.68
2018-07-01T16:03:15.847Z,33.15
2018-07-01T16:04:15.905Z,33.06
2018-07-01T16:06:08.914Z,33.34
2018-07-01T16:07:08.985Z,33.34
2018-07-01T16:09:01.991Z,33.06
2018-07-01T16:10:02.066Z,33.25
2018-07-01T16:11:55.080Z,33.34
2018-07-01T16:12:55.125Z,33.34
2018-07-01T16:14:48.133Z,33.25
2018-07-01T16:15:48.243Z,33.25
2018-07-01T16:17:41.213Z,33.34
2018-07-01T16:18:41.264Z,32.96
2018-07-01T16:20:34.273Z,33.54
2018-07-01T16:21:34.334Z,33.54
2018-07-01T16:23:27.348Z,33.25
2018-07-01T16:24:27.405Z,33.34
2018-07-01T16:26:20.404Z,33.83
2018-07-01T16:27:20.472Z,33.54
2018-07-01T16:29:13.478Z,33.73
2018-07-01T16:30:13.558Z,33.23
2018-07-01T16:32:06.542Z,33.23
2018-07-01T16:33:06.618Z,33.04
2018-07-01T16:34:59.617Z,33.33
2018-07-01T16:35:59.677Z,33.23
2018-07-01T16:37:52.681Z,33.04
2018-07-01T16:38:52.745Z,33.33
2018-07-01T16:40:45.818Z,33.72
2018-07-01T16:41:45.820Z,33.42
2018-07-01T16:43:38.826Z,32.75
2018-07-01T16:44:38.888Z,32.26
2018-07-01T16:46:31.900Z,32.75
2018-07-01T16:47:31.963Z,33.23
2018-07-01T16:49:25.001Z,32.75
2018-07-01T16:50:25.034Z,32.56
2018-07-01T16:52:18.590Z,32.94
2018-07-01T16:53:18.608Z,32.65
2018-07-01T16:55:11.618Z,33.23
2018-07-01T16:56:11.679Z,32.75
2018-07-01T16:58:04.673Z,32.75
2018-07-01T16:59:04.755Z,32.46
2018-07-01T17:00:57.755Z,33.42
2018-07-01T17:01:57.811Z,33.23
2018-07-01T17:03:50.813Z,33.04
2018-07-01T17:04:50.882Z,33.04
2018-07-01T17:06:43.896Z,33.33
2018-07-01T17:07:43.957Z,33.22
2018-07-01T17:09:36.967Z,33.42
2018-07-01T17:10:37.025Z,33.22
2018-07-01T17:12:30.040Z,33.02
2018-07-01T17:13:30.144Z,32.92
2018-07-01T17:15:23.107Z,33.70
2018-07-01T17:16:23.171Z,33.31
2018-07-01T17:18:16.168Z,33.89
2018-07-01T17:19:16.236Z,33.22
2018-07-01T17:21:09.240Z,33.99
2018-07-01T17:22:09.328Z,33.80
2018-07-01T17:24:02.303Z,33.41
2018-07-01T17:25:02.375Z,33.80
2018-07-01T17:26:55.376Z,34.09
2018-07-01T17:27:55.439Z,33.99
2018-07-01T17:29:48.464Z,33.99
2018-07-01T17:30:48.508Z,33.80
2018-07-01T17:32:41.512Z,33.89
2018-07-01T17:33:41.572Z,33.70
2018-07-01T17:35:34.638Z,33.87
2018-07-01T17:36:34.642Z,33.12
2018-07-01T17:38:27.645Z,33.29
2018-07-01T17:39:27.907Z,33.10
2018-07-01T17:41:20.715Z,33.10
2018-07-01T17:42:20.865Z,33.39
2018-07-01T17:44:13.776Z,33.01
2018-07-01T17:45:13.844Z,33.29
2018-07-01T17:47:06.850Z,33.97
2018-07-01T17:48:06.910Z,33.29
2018-07-01T17:49:59.912Z,33.20
2018-07-01T17:50:59.993Z,33.39
2018-07-01T17:52:52.981Z,33.20
2018-07-01T17:53:53.050Z,32.21
2018-07-01T17:55:46.048Z,33.95
2018-07-01T17:56:46.110Z,33.67
2018-07-01T17:58:39.114Z,33.67
2018-07-01T17:59:39.178Z,33.86
2018-07-01T18:01:32.176Z,33.28
2018-07-01T18:02:32.257Z,34.15
2018-07-01T18:04:25.249Z,33.57
2018-07-01T18:05:25.311Z,33.37
2018-07-01T18:07:18.316Z,32.51
2018-07-01T18:08:18.379Z,32.60
2018-07-01T18:10:11.382Z,32.51
2018-07-01T18:11:11.448Z,32.89
2018-07-01T18:13:04.452Z,33.26
2018-07-01T18:14:04.513Z,32.99
2018-07-01T18:15:57.518Z,32.41
2018-07-01T18:16:57.587Z,33.26
2018-07-01T18:18:50.587Z,33.26
2018-07-01T18:19:50.649Z,33.75
2018-07-01T18:21:53.002Z,33.07
2018-07-01T18:23:09.754Z,33.17
2018-07-01T18:24:58.068Z,33.45
2018-07-01T18:25:36.779Z,33.26
2018-07-01T18:27:36.850Z,33.17
2018-07-01T18:28:41.528Z,33.55
2018-07-01T18:30:22.854Z,33.36
2018-07-01T18:31:22.914Z,33.17
2018-07-01T18:33:15.917Z,33.17
2018-07-01T18:34:15.978Z,33.65